createdAt,value
2022-08-07T00:00:03.026Z,98119.73
2022-08-07T00:02:35.585Z,98114.49
2022-08-07T00:03:11.265Z,98117.02
2022-08-07T00:04:24.694Z,98117.95
2022-08-07T00:05:37.437Z,98117.73
2022-08-07T00:06:51.601Z,98120.62
2022-08-07T00:08:02.518Z,98123.84
2022-08-07T00:09:17.054Z,98120.34
2022-08-07T00:10:33.688Z,98118.61
2022-08-07T00:11:47.928Z,98117.90
2022-08-07T00:13:23.480Z,98116.30
2022-08-07T00:14:34.605Z,98116.05
2022-08-07T00:15:50.935Z,98115.77
2022-08-07T00:17:01.949Z,98115.04
2022-08-07T00:18:19.676Z,98116.11
2022-08-07T00:20:00.209Z,98122.34
2022-08-07T00:21:07.896Z,98122.91
2022-08-07T00:22:24.802Z,98120.82
2022-08-07T00:23:46.768Z,98122.67
2022-08-07T00:24:56.800Z,98120.89
2022-08-07T00:26:13.047Z,98121.21
2022-08-07T00:27:28.800Z,98121.30
2022-08-07T00:28:58.311Z,98120.33
2022-08-07T00:30:10.179Z,98123.04
2022-08-07T00:31:42.138Z,98118.82
2022-08-07T00:32:51.972Z,98123.35
2022-08-07T00:34:01.014Z,98122.41
2022-08-07T00:35:11.561Z,98122.08
2022-08-07T00:36:25.285Z,98121.02
2022-08-07T00:37:48.208Z,98115.80
2022-08-07T00:38:57.106Z,98118.91
2022-08-07T00:40:10.861Z,98123.52
2022-08-07T00:41:29.024Z,98123.66
2022-08-07T00:42:41.019Z,98121.13
2022-08-07T00:44:01.402Z,98119.45
2022-08-07T00:45:16.215Z,98123.23
2022-08-07T00:46:24.746Z,98126.04
2022-08-07T00:48:07.730Z,98124.13
2022-08-07T00:49:04.778Z,98122.98
2022-08-07T00:50:19.654Z,98119.39
2022-08-07T00:51:57.503Z,98124.00
2022-08-07T00:53:09.418Z,98125.20
2022-08-07T00:54:20.423Z,98124.71
2022-08-07T00:56:00.376Z,98122.91
2022-08-07T00:57:03.479Z,98125.27
2022-08-07T00:58:12.403Z,98126.22
2022-08-07T00:59:35.458Z,98126.95
2022-08-07T01:00:53.341Z,98130.02
2022-08-07T01:02:06.344Z,98131.89
2022-08-07T01:03:55.332Z,98129.27
2022-08-07T01:04:52.847Z,98130.95
2022-08-07T01:06:05.052Z,98132.95
2022-08-07T01:07:15.570Z,98133.22
2022-08-07T01:08:26.424Z,98133.17
2022-08-07T01:10:06.349Z,98135.34
2022-08-07T01:12:04.922Z,98134.64
2022-08-07T01:12:53.285Z,98132.08
2022-08-07T01:14:04.851Z,98135.09
2022-08-07T01:15:17.706Z,98138.92
2022-08-07T01:16:30.318Z,98138.39
2022-08-07T01:17:41.973Z,98138.56
2022-08-07T01:18:51.145Z,98137.29
2022-08-07T01:20:09.384Z,98146.55
2022-08-07T01:21:28.505Z,98142.98
2022-08-07T01:22:46.786Z,98142.41
2022-08-07T01:24:12.555Z,98143.92
2022-08-07T01:25:53.543Z,98143.52
2022-08-07T01:26:51.867Z,98142.92
2022-08-07T01:28:03.478Z,98143.25
2022-08-07T01:29:13.551Z,98149.25
2022-08-07T01:30:27.222Z,98153.16
2022-08-07T01:31:42.506Z,98148.13
2022-08-07T01:32:55.281Z,98146.66
2022-08-07T01:34:04.440Z,98149.98
2022-08-07T01:35:24.467Z,98148.44
2022-08-07T01:36:36.403Z,98146.81
2022-08-07T01:37:56.718Z,98148.24
2022-08-07T01:39:09.522Z,98147.05
2022-08-07T01:40:24.459Z,98145.75
2022-08-07T01:41:37.855Z,98145.76
2022-08-07T01:42:58.584Z,98147.36
2022-08-07T01:44:11.835Z,98144.33
2022-08-07T01:45:36.333Z,98148.14
2022-08-07T01:46:55.715Z,98150.23
2022-08-07T01:48:20.614Z,98151.04
2022-08-07T01:49:31.967Z,98151.56
2022-08-07T01:50:43.294Z,98158.89
2022-08-07T01:52:03.984Z,98164.35
2022-08-07T01:53:21.622Z,98161.39
2022-08-07T01:54:48.774Z,98162.46
2022-08-07T01:56:03.571Z,98166.08
2022-08-07T01:57:24.272Z,98167.04
2022-08-07T01:58:37.450Z,98169.53
2022-08-07T02:00:02.305Z,98170.58
2022-08-07T02:01:59.802Z,98177.83
2022-08-07T02:03:15.952Z,98183.49
2022-08-07T02:04:55.830Z,98184.63
2022-08-07T02:06:31.635Z,98189.27
2022-08-07T02:07:52.509Z,98189.89
2022-08-07T02:09:08.498Z,98188.51
2022-08-07T02:10:21.118Z,98189.10
2022-08-07T02:12:04.306Z,98193.37
2022-08-07T02:13:01.960Z,98196.89
2022-08-07T02:14:35.870Z,98197.68
2022-08-07T02:15:46.173Z,98197.73
2022-08-07T02:16:54.323Z,98203.79
2022-08-07T02:18:03.741Z,98205.59
2022-08-07T02:20:05.311Z,98208.71
2022-08-07T02:20:48.630Z,98210.42
2022-08-07T02:22:03.981Z,98214.78
2022-08-07T02:23:23.999Z,98216.69
2022-08-07T02:24:32.590Z,98217.98
2022-08-07T02:26:31.341Z,98217.93
2022-08-07T02:27:18.331Z,98222.70
2022-08-07T02:28:30.435Z,98228.05
2022-08-07T02:29:54.118Z,98226.17
2022-08-07T02:31:28.492Z,98231.44
2022-08-07T02:33:03.842Z,98234.05
2022-08-07T02:34:11.448Z,98235.71
2022-08-07T02:36:28.481Z,98238.04
2022-08-07T02:37:01.285Z,98235.95
2022-08-07T02:38:11.453Z,98237.66
2022-08-07T02:39:43.098Z,98241.87
2022-08-07T02:40:58.061Z,98241.17
2022-08-07T02:42:10.004Z,98244.80
2022-08-07T02:43:25.147Z,98245.23
2022-08-07T02:44:37.997Z,98245.50
2022-08-07T02:46:00.491Z,98249.54
2022-08-07T02:47:19.474Z,98253.17
2022-08-07T02:48:54.797Z,98259.80
2022-08-07T02:50:03.934Z,98263.10
2022-08-07T02:51:42.813Z,98265.06
2022-08-07T02:53:06.461Z,98264.67
2022-08-07T02:54:17.883Z,98267.36
2022-08-07T02:56:04.076Z,98268.40
2022-08-07T02:57:02.414Z,98276.03
2022-08-07T02:58:17.525Z,98277.21
2022-08-07T02:59:32.290Z,98278.00
2022-08-07T03:00:47.079Z,98279.23
2022-08-07T03:02:05.311Z,98281.44
2022-08-07T03:03:13.794Z,98281.51
2022-08-07T03:04:33.495Z,98282.67
2022-08-07T03:05:44.069Z,98284.85
2022-08-07T03:06:54.245Z,98284.13
2022-08-07T03:08:07.283Z,98286.95
2022-08-07T03:09:43.654Z,98288.66
2022-08-07T03:10:53.601Z,98289.45
2022-08-07T03:12:22.529Z,98286.84
2022-08-07T03:13:49.478Z,98286.55
2022-08-07T03:15:02.565Z,98286.66
2022-08-07T03:16:22.915Z,98291.67
2022-08-07T03:17:52.908Z,98295.75
2022-08-07T03:19:05.717Z,98298.16
2022-08-07T03:20:17.299Z,98296.91
2022-08-07T03:21:26.166Z,98299.86
2022-08-07T03:22:37.428Z,98300.89
2022-08-07T03:24:20.497Z,98300.27
2022-08-07T03:25:16.212Z,98299.95
2022-08-07T03:26:35.269Z,98300.48
2022-08-07T03:27:59.127Z,98310.27
2022-08-07T03:29:14.782Z,98312.55
2022-08-07T03:30:26.750Z,98313.20
2022-08-07T03:31:43.530Z,98313.23
2022-08-07T03:32:58.616Z,98314.86
2022-08-07T03:34:18.542Z,98313.54
2022-08-07T03:35:43.493Z,98313.61
2022-08-07T03:36:59.426Z,98311.98
2022-08-07T03:38:13.333Z,98313.15
2022-08-07T03:39:45.961Z,98314.11
2022-08-07T03:40:57.069Z,98315.61
2022-08-07T03:42:07.492Z,98316.04
2022-08-07T03:43:17.097Z,98317.10
2022-08-07T03:44:34.226Z,98314.14
2022-08-07T03:45:47.713Z,98315.75
2022-08-07T03:47:13.821Z,98316.48
2022-08-07T03:48:29.670Z,98316.77
2022-08-07T03:49:38.288Z,98315.37
2022-08-07T03:50:55.713Z,98317.52
2022-08-07T03:52:26.082Z,98316.89
2022-08-07T03:54:33.034Z,98317.58
2022-08-07T03:55:12.420Z,98319.49
2022-08-07T03:56:33.252Z,98320.77
2022-08-07T03:58:35.388Z,98322.58
2022-08-07T03:59:21.350Z,98327.17
2022-08-07T04:00:30.410Z,98326.89
2022-08-07T04:01:39.601Z,98325.67
2022-08-07T04:02:56.745Z,98325.14
2022-08-07T04:04:13.645Z,98328.79
2022-08-07T04:05:39.363Z,98329.02
2022-08-07T04:06:56.352Z,98332.98
2022-08-07T04:08:16.278Z,98335.17
2022-08-07T04:09:44.485Z,98332.16
2022-08-07T04:12:23.627Z,98332.83
2022-08-07T04:12:28.957Z,98336.40
2022-08-07T04:14:09.403Z,98337.56
2022-08-07T04:15:11.174Z,98339.10
2022-08-07T04:16:31.058Z,98338.49
2022-08-07T04:18:56.670Z,98339.71
2022-08-07T04:19:17.773Z,98342.31
2022-08-07T04:20:31.598Z,98343.80
2022-08-07T04:21:48.002Z,98348.52
2022-08-07T04:23:19.382Z,98348.09
2022-08-07T04:24:34.273Z,98352.39
2022-08-07T04:25:51.419Z,98353.92
2022-08-07T04:27:04.560Z,98352.23
2022-08-07T04:28:14.076Z,98354.08
2022-08-07T04:29:22.502Z,98350.27
2022-08-07T04:30:43.380Z,98351.13
2022-08-07T04:32:11.637Z,98346.56
2022-08-07T04:33:20.588Z,98345.86
2022-08-07T04:34:33.245Z,98349.48
2022-08-07T04:35:54.017Z,98350.08
2022-08-07T04:37:20.137Z,98354.86
2022-08-07T04:38:29.925Z,98360.95
2022-08-07T04:39:49.769Z,98362.61
2022-08-07T04:40:59.861Z,98358.92
2022-08-07T04:42:32.968Z,98358.86
2022-08-07T04:44:11.920Z,98355.32
2022-08-07T04:45:57.798Z,98357.95
2022-08-07T04:47:09.109Z,98358.33
2022-08-07T04:48:56.092Z,98359.38
2022-08-07T04:50:30.012Z,98360.02
2022-08-07T04:52:13.800Z,98365.58
2022-08-07T04:54:01.048Z,98371.29
2022-08-07T04:58:23.768Z,98373.95
2022-08-07T04:58:24.302Z,98371.94
2022-08-07T04:59:18.549Z,98370.33
2022-08-07T05:00:49.896Z,98371.40
2022-08-07T05:02:30.687Z,98371.51
2022-08-07T05:04:06.440Z,98372.03
2022-08-07T05:05:53.206Z,98373.47
2022-08-07T05:07:19.659Z,98371.74
2022-08-07T05:09:01.469Z,98376.10
2022-08-07T05:10:32.443Z,98370.88
2022-08-07T05:11:57.407Z,98368.99
2022-08-07T05:14:54.447Z,98368.55
2022-08-07T05:15:23.270Z,98364.70
2022-08-07T05:16:43.968Z,98368.16
2022-08-07T05:18:08.869Z,98367.10
2022-08-07T05:19:25.795Z,98366.73
2022-08-07T05:20:58.708Z,98368.81
2022-08-07T05:22:11.579Z,98367.42
2022-08-07T05:23:32.305Z,98367.17
2022-08-07T05:24:47.627Z,98366.13
2022-08-07T05:26:13.328Z,98362.87
2022-08-07T05:28:15.980Z,98361.33
2022-08-07T05:29:04.383Z,98359.77
2022-08-07T05:30:16.267Z,98362.39
2022-08-07T05:31:47.522Z,98363.10
2022-08-07T05:33:06.991Z,98363.21
2022-08-07T05:34:18.723Z,98363.60
2022-08-07T05:35:33.181Z,98365.09
2022-08-07T05:36:49.202Z,98365.05
2022-08-07T05:38:09.928Z,98366.70
2022-08-07T05:40:06.664Z,98365.73
2022-08-07T05:40:52.451Z,98368.17
2022-08-07T05:42:06.388Z,98366.38
2022-08-07T05:43:49.817Z,98369.63
2022-08-07T05:45:14.632Z,98365.55
2022-08-07T05:46:26.545Z,98368.70
2022-08-07T05:48:02.597Z,98364.58
2022-08-07T05:49:12.528Z,98365.80
2022-08-07T05:50:24.010Z,98364.33
2022-08-07T05:51:33.437Z,98363.23
2022-08-07T05:52:51.959Z,98364.05
2022-08-07T05:54:14.069Z,98363.94
2022-08-07T05:56:03.018Z,98363.71
2022-08-07T05:57:04.162Z,98365.70
2022-08-07T05:58:13.788Z,98369.46
2022-08-07T05:59:23.914Z,98366.64
2022-08-07T06:00:37.324Z,98368.63
2022-08-07T06:01:50.310Z,98373.08
2022-08-07T06:02:58.705Z,98371.42
2022-08-07T06:04:11.636Z,98372.84
2022-08-07T06:05:32.950Z,98375.50
2022-08-07T06:06:56.671Z,98374.17
2022-08-07T06:08:30.421Z,98372.13
2022-08-07T06:10:03.741Z,98370.08
2022-08-07T06:11:08.998Z,98371.18
2022-08-07T06:12:31.789Z,98376.40
2022-08-07T06:14:11.522Z,98379.64
2022-08-07T06:15:15.188Z,98381.30
2022-08-07T06:16:25.566Z,98379.08
2022-08-07T06:17:41.327Z,98383.60
2022-08-07T06:19:03.925Z,98381.73
2022-08-07T06:20:31.662Z,98380.52
2022-08-07T06:22:15.599Z,98380.79
2022-08-07T06:23:46.003Z,98381.25
2022-08-07T06:24:58.094Z,98383.27
2022-08-07T06:26:17.961Z,98384.85
2022-08-07T06:27:44.071Z,98383.69
2022-08-07T06:28:56.334Z,98384.77
2022-08-07T06:30:04.965Z,98384.70
2022-08-07T06:31:15.148Z,98384.91
2022-08-07T06:32:25.344Z,98387.07
2022-08-07T06:33:38.062Z,98385.59
2022-08-07T06:34:48.507Z,98385.71
2022-08-07T06:36:12.427Z,98385.36
2022-08-07T06:37:43.840Z,98384.13
2022-08-07T06:40:13.563Z,98387.96
2022-08-07T06:40:32.369Z,98385.77
2022-08-07T06:42:14.380Z,98387.53
2022-08-07T06:44:01.407Z,98386.42
2022-08-07T06:45:21.049Z,98384.30
2022-08-07T06:46:35.943Z,98380.39
2022-08-07T06:47:59.077Z,98380.15
2022-08-07T06:49:15.167Z,98384.17
2022-08-07T06:50:23.933Z,98388.08
2022-08-07T06:51:33.579Z,98387.18
2022-08-07T06:52:52.933Z,98388.69
2022-08-07T06:55:27.948Z,98391.80
2022-08-07T06:55:53.521Z,98391.73
2022-08-07T06:57:03.868Z,98392.75
2022-08-07T06:58:16.717Z,98390.31
2022-08-07T07:00:13.246Z,98388.55
2022-08-07T07:01:14.158Z,98389.63
2022-08-07T07:02:48.453Z,98390.13
2022-08-07T07:03:55.103Z,98391.25
2022-08-07T07:05:12.749Z,98390.46
2022-08-07T07:06:26.142Z,98387.11
2022-08-07T07:07:59.243Z,98387.87
2022-08-07T07:09:24.172Z,98389.52
2022-08-07T07:10:47.247Z,98393.25
2022-08-07T07:12:15.589Z,98394.86
2022-08-07T07:13:55.325Z,98393.16
2022-08-07T07:15:03.645Z,98393.72
2022-08-07T07:16:18.080Z,98394.63
2022-08-07T07:17:39.048Z,98390.84
2022-08-07T07:18:59.831Z,98392.91
2022-08-07T07:20:22.765Z,98393.77
2022-08-07T07:22:04.219Z,98395.64
2022-08-07T07:24:06.490Z,98398.77
2022-08-07T07:24:34.709Z,98405.77
2022-08-07T07:26:31.416Z,98407.32
2022-08-07T07:27:15.756Z,98412.87
2022-08-07T07:29:56.017Z,98413.82
2022-08-07T07:30:32.457Z,98413.05
2022-08-07T07:31:53.745Z,98414.53
2022-08-07T07:33:03.594Z,98414.81
2022-08-07T07:34:15.563Z,98412.94
2022-08-07T07:35:25.464Z,98415.18
2022-08-07T07:36:43.485Z,98411.70
2022-08-07T07:37:59.689Z,98410.97
2022-08-07T07:39:13.080Z,98411.62
2022-08-07T07:40:26.235Z,98407.00
2022-08-07T07:42:02.316Z,98408.77
2022-08-07T07:43:15.508Z,98409.77
2022-08-07T07:44:30.665Z,98408.25
2022-08-07T07:46:38.296Z,98404.17
2022-08-07T07:47:22.741Z,98404.86
2022-08-07T07:48:35.991Z,98400.31
2022-08-07T07:50:36.533Z,98403.09
2022-08-07T07:51:18.488Z,98402.08
2022-08-07T07:52:28.570Z,98403.74
2022-08-07T07:53:51.661Z,98404.23
2022-08-07T07:55:03.545Z,98404.23
2022-08-07T07:56:13.322Z,98402.59
2022-08-07T07:57:43.822Z,98404.30
2022-08-07T07:58:58.090Z,98402.54
2022-08-07T08:00:07.263Z,98401.46
2022-08-07T08:02:01.571Z,98402.17
2022-08-07T08:03:01.207Z,98403.88
2022-08-07T08:04:15.336Z,98401.79
2022-08-07T08:05:30.277Z,98401.86
2022-08-07T08:06:56.432Z,98399.58
2022-08-07T08:08:32.413Z,98401.56
2022-08-07T08:09:52.032Z,98403.27
2022-08-07T08:11:16.391Z,98405.73
2022-08-07T08:12:58.984Z,98404.92
2022-08-07T08:14:12.605Z,98408.55
2022-08-07T08:15:23.323Z,98408.19
2022-08-07T08:16:39.839Z,98407.98
2022-08-07T08:17:57.846Z,98406.61
2022-08-07T08:19:29.601Z,98406.16
2022-08-07T08:20:43.497Z,98407.28
2022-08-07T08:22:13.173Z,98411.59
2022-08-07T08:23:47.196Z,98406.13
2022-08-07T08:25:24.612Z,98403.66
2022-08-07T08:27:09.259Z,98403.38
2022-08-07T08:28:37.849Z,98404.19
2022-08-07T08:29:59.592Z,98408.77
2022-08-07T08:31:22.755Z,98406.54
2022-08-07T08:32:51.517Z,98400.91
2022-08-07T08:34:02.534Z,98405.95
2022-08-07T08:35:15.325Z,98405.26
2022-08-07T08:36:33.825Z,98405.28
2022-08-07T08:38:01.039Z,98405.29
2022-08-07T08:39:10.086Z,98409.69
2022-08-07T08:40:32.183Z,98409.44
2022-08-07T08:41:57.804Z,98409.52
2022-08-07T08:43:42.099Z,98407.13
2022-08-07T08:45:13.404Z,98407.81
2022-08-07T08:46:36.473Z,98405.80
2022-08-07T08:48:28.395Z,98405.48
2022-08-07T08:50:14.111Z,98404.42
2022-08-07T08:51:49.717Z,98403.90
2022-08-07T08:53:32.794Z,98402.57
2022-08-07T08:55:04.622Z,98403.91
2022-08-07T08:56:18.572Z,98401.76
2022-08-07T08:57:56.477Z,98406.01
2022-08-07T08:59:23.333Z,98403.45
2022-08-07T09:00:34.763Z,98402.48
2022-08-07T09:01:59.470Z,98404.14
2022-08-07T09:03:18.396Z,98402.14
2022-08-07T09:04:57.956Z,98401.09
2022-08-07T09:06:13.753Z,98398.85
2022-08-07T09:07:46.372Z,98397.58
2022-08-07T09:09:23.812Z,98394.34
2022-08-07T09:11:03.298Z,98396.48
2022-08-07T09:12:53.012Z,98399.96
2022-08-07T09:14:21.109Z,98397.38
2022-08-07T09:16:22.154Z,98399.90
2022-08-07T09:18:13.095Z,98398.84
2022-08-07T09:19:51.798Z,98397.27
2022-08-07T09:21:58.277Z,98397.17
2022-08-07T09:24:31.058Z,98399.49
2022-08-07T09:24:59.328Z,98398.75
2022-08-07T09:26:37.754Z,98396.50
2022-08-07T09:29:22.341Z,98395.25
2022-08-07T09:30:04.599Z,98393.94
2022-08-07T09:31:38.664Z,98392.23
2022-08-07T09:32:54.075Z,98391.71
2022-08-07T09:34:09.823Z,98397.47
2022-08-07T09:36:09.529Z,98396.81
2022-08-07T09:37:47.819Z,98388.33
2022-08-07T09:39:11.419Z,98387.00
2022-08-07T09:40:37.629Z,98389.59
2022-08-07T09:41:58.653Z,98390.45
2022-08-07T09:43:20.332Z,98390.60
2022-08-07T09:47:25.421Z,98395.77
2022-08-07T09:47:55.665Z,98394.98
2022-08-07T09:50:02.655Z,98397.04
2022-08-07T09:51:03.456Z,98394.05
2022-08-07T09:52:38.282Z,98394.80
2022-08-07T09:53:49.001Z,98395.70
2022-08-07T09:55:17.081Z,98394.67
2022-08-07T09:57:18.523Z,98394.67
2022-08-07T09:58:52.205Z,98394.88
2022-08-07T10:00:24.381Z,98392.59
2022-08-07T10:02:04.869Z,98391.16
2022-08-07T10:04:06.762Z,98392.89
2022-08-07T10:05:13.766Z,98390.89
2022-08-07T10:06:54.036Z,98387.75
2022-08-07T10:08:29.445Z,98387.75
2022-08-07T10:09:58.846Z,98385.19
2022-08-07T10:12:03.365Z,98382.52
2022-08-07T10:12:52.879Z,98383.48
2022-08-07T10:14:40.704Z,98384.44
2022-08-07T10:16:25.345Z,98384.69
2022-08-07T10:18:01.777Z,98385.73
2022-08-07T10:19:45.406Z,98382.39
2022-08-07T10:21:20.031Z,98377.48
2022-08-07T10:22:52.837Z,98376.72
2022-08-07T10:24:10.160Z,98375.84
2022-08-07T10:25:43.638Z,98373.56
2022-08-07T10:27:12.852Z,98373.55
2022-08-07T10:28:52.989Z,98368.45
2022-08-07T10:30:39.856Z,98366.92
2022-08-07T10:32:36.438Z,98364.83
2022-08-07T10:34:06.569Z,98364.61
2022-08-07T10:35:56.397Z,98361.64
2022-08-07T10:38:00.132Z,98361.17
2022-08-07T10:39:13.457Z,98356.88
2022-08-07T10:40:54.504Z,98356.80
2022-08-07T10:42:41.453Z,98356.20
2022-08-07T10:44:07.649Z,98358.70
2022-08-07T10:45:44.921Z,98358.06
2022-08-07T10:47:52.744Z,98360.20
2022-08-07T10:49:24.584Z,98360.13
2022-08-07T10:50:54.778Z,98367.29
2022-08-07T10:52:13.273Z,98370.28
2022-08-07T10:53:44.450Z,98366.14
2022-08-07T10:55:07.953Z,98364.48
2022-08-07T10:56:54.199Z,98362.17
2022-08-07T10:58:12.801Z,98362.02
2022-08-07T10:59:47.572Z,98361.33
2022-08-07T11:01:11.633Z,98360.20
2022-08-07T11:02:35.218Z,98362.14
2022-08-07T11:04:17.038Z,98355.02
2022-08-07T11:06:05.775Z,98352.19
2022-08-07T11:07:59.326Z,98351.16
2022-08-07T11:10:10.159Z,98350.58
2022-08-07T11:11:21.907Z,98349.86
2022-08-07T11:13:02.313Z,98350.65
2022-08-07T11:14:43.826Z,98353.04
2022-08-07T11:15:44.699Z,98349.25
2022-08-07T11:17:07.414Z,98347.96
2022-08-07T11:18:44.182Z,98345.48
2022-08-07T11:20:10.952Z,98340.58
2022-08-07T11:21:42.875Z,98335.31
2022-08-07T11:22:54.782Z,98334.79
2022-08-07T11:24:22.656Z,98336.11
2022-08-07T11:25:42.305Z,98335.95
2022-08-07T11:27:20.685Z,98336.05
2022-08-07T11:28:55.176Z,98332.36
2022-08-07T11:30:17.732Z,98329.74
2022-08-07T11:32:03.877Z,98329.54
2022-08-07T11:33:54.207Z,98330.85
2022-08-07T11:35:25.303Z,98332.08
2022-08-07T11:37:00.344Z,98331.99
2022-08-07T11:38:33.021Z,98333.67
2022-08-07T11:40:05.433Z,98330.77
2022-08-07T11:41:28.336Z,98326.73
2022-08-07T11:42:49.172Z,98324.91
2022-08-07T11:44:26.304Z,98328.27
2022-08-07T11:45:58.778Z,98328.81
2022-08-07T11:47:15.624Z,98327.17
2022-08-07T11:49:04.163Z,98325.90
2022-08-07T11:50:32.646Z,98328.67
2022-08-07T11:51:55.560Z,98328.27
2022-08-07T11:54:01.703Z,98327.36
2022-08-07T11:56:09.494Z,98328.69
2022-08-07T11:57:17.504Z,98330.41
2022-08-07T11:59:03.246Z,98330.88
2022-08-07T12:01:02.560Z,98336.57
2022-08-07T12:02:53.664Z,98337.01
2022-08-07T12:04:33.122Z,98340.03
2022-08-07T12:06:37.878Z,98338.21
2022-08-07T12:08:25.815Z,98337.24
2022-08-07T12:10:05.667Z,98341.25
2022-08-07T12:11:23.986Z,98338.48
2022-08-07T12:12:54.544Z,98336.50
2022-08-07T12:14:29.524Z,98342.35
2022-08-07T12:16:05.695Z,98348.89
2022-08-07T12:17:19.834Z,98349.20
2022-08-07T12:19:02.803Z,98350.95
2022-08-07T12:20:30.834Z,98355.57
2022-08-07T12:22:38.781Z,98362.40
2022-08-07T12:24:07.449Z,98363.62
2022-08-07T12:26:02.853Z,98364.77
2022-08-07T12:27:27.882Z,98366.67
2022-08-07T12:29:03.715Z,98366.29
2022-08-07T12:30:12.865Z,98373.16
2022-08-07T12:32:04.197Z,98376.14
2022-08-07T12:33:28.110Z,98376.89
2022-08-07T12:34:49.388Z,98374.98
2022-08-07T12:36:04.716Z,98376.05
2022-08-07T12:37:28.589Z,98378.94
2022-08-07T12:38:57.665Z,98382.20
2022-08-07T12:40:19.111Z,98382.16
2022-08-07T12:41:49.471Z,98383.77
2022-08-07T12:43:02.996Z,98386.23
2022-08-07T12:44:18.467Z,98391.21
2022-08-07T12:45:52.328Z,98391.34
2022-08-07T12:47:06.314Z,98395.45
2022-08-07T12:48:28.237Z,98394.11
2022-08-07T12:50:34.072Z,98394.41
2022-08-07T12:52:12.123Z,98392.41
2022-08-07T12:54:03.155Z,98396.86
2022-08-07T12:56:02.096Z,98397.38
2022-08-07T12:57:12.367Z,98398.86
2022-08-07T12:58:35.440Z,98399.48
2022-08-07T12:59:54.736Z,98399.75
2022-08-07T13:01:32.193Z,98401.46
2022-08-07T13:03:07.285Z,98402.48
2022-08-07T13:05:01.049Z,98405.20
2022-08-07T13:06:27.829Z,98404.55
2022-08-07T13:08:14.159Z,98406.39
2022-08-07T13:10:20.453Z,98406.95
2022-08-07T13:11:20.004Z,98409.09
2022-08-07T13:12:34.888Z,98411.56
2022-08-07T13:13:49.499Z,98415.98
2022-08-07T13:15:23.498Z,98415.86
2022-08-07T13:17:18.189Z,98419.63
2022-08-07T13:19:03.698Z,98422.75
2022-08-07T13:20:14.764Z,98425.38
2022-08-07T13:22:12.627Z,98425.52
2022-08-07T13:24:03.747Z,98426.20
2022-08-07T13:25:36.412Z,98423.45
2022-08-07T13:26:48.397Z,98425.65
2022-08-07T13:28:14.012Z,98426.01
2022-08-07T13:29:34.892Z,98427.32
2022-08-07T13:30:53.202Z,98428.44
2022-08-07T13:32:35.065Z,98426.52
2022-08-07T13:34:34.251Z,98428.22
2022-08-07T13:35:59.581Z,98428.98
2022-08-07T13:37:40.253Z,98430.69
2022-08-07T13:39:13.179Z,98433.64
2022-08-07T13:40:42.121Z,98427.83
2022-08-07T13:41:54.702Z,98429.81
2022-08-07T13:43:11.817Z,98427.53
2022-08-07T13:44:34.565Z,98423.38
2022-08-07T13:46:12.455Z,98426.05
2022-08-07T13:47:21.765Z,98423.60
2022-08-07T13:48:38.718Z,98428.41
2022-08-07T13:50:32.911Z,98426.40
2022-08-07T13:51:28.477Z,98426.84
2022-08-07T13:52:47.031Z,98421.73
2022-08-07T13:54:00.781Z,98426.31
2022-08-07T13:55:25.555Z,98422.56
2022-08-07T13:56:40.924Z,98430.36
2022-08-07T13:58:31.500Z,98432.23
2022-08-07T13:59:46.264Z,98434.68
2022-08-07T14:01:09.359Z,98434.77
2022-08-07T14:02:33.294Z,98432.73
2022-08-07T14:04:08.132Z,98431.75
2022-08-07T14:05:17.547Z,98433.61
2022-08-07T14:06:42.230Z,98431.34
2022-08-07T14:07:59.462Z,98431.45
2022-08-07T14:10:00.489Z,98431.05
2022-08-07T14:10:43.520Z,98428.14
2022-08-07T14:12:07.245Z,98425.42
2022-08-07T14:13:18.187Z,98418.97
2022-08-07T14:14:33.095Z,98418.23
2022-08-07T14:15:50.641Z,98423.50
2022-08-07T14:17:32.366Z,98420.81
2022-08-07T14:18:42.337Z,98424.44
2022-08-07T14:20:42.729Z,98428.23
2022-08-07T14:22:01.187Z,98423.59
2022-08-07T14:24:00.109Z,98420.66
2022-08-07T14:25:03.320Z,98422.23
2022-08-07T14:26:30.364Z,98420.70
2022-08-07T14:28:10.272Z,98413.04
2022-08-07T14:30:07.652Z,98406.86
2022-08-07T14:30:54.993Z,98403.06
2022-08-07T14:32:07.101Z,98403.17
2022-08-07T14:33:17.179Z,98409.67
2022-08-07T14:34:32.878Z,98408.90
2022-08-07T14:35:44.559Z,98415.36
2022-08-07T14:36:56.727Z,98429.98
2022-08-07T14:38:06.024Z,98443.41
2022-08-07T14:40:17.344Z,98456.38
2022-08-07T14:40:43.269Z,98465.44
2022-08-07T14:42:19.613Z,98473.44
2022-08-07T14:43:58.219Z,98476.29
2022-08-07T14:45:21.855Z,98472.15
2022-08-07T14:46:32.455Z,98470.88
2022-08-07T14:47:42.301Z,98473.34
2022-08-07T14:48:54.130Z,98473.31
2022-08-07T14:50:05.314Z,98472.70
2022-08-07T14:51:17.220Z,98471.66
2022-08-07T14:52:27.979Z,98471.75
2022-08-07T14:54:05.948Z,98473.14
2022-08-07T14:55:10.471Z,98473.80
2022-08-07T14:56:29.534Z,98474.23
2022-08-07T14:57:55.115Z,98472.14
2022-08-07T14:59:13.812Z,98469.79
2022-08-07T15:00:36.533Z,98471.11
2022-08-07T15:04:53.152Z,98464.98
2022-08-07T15:07:47.374Z,98459.02
2022-08-07T15:09:58.332Z,98458.29
2022-08-07T15:10:32.980Z,98460.27
2022-08-07T15:12:01.481Z,98460.10
2022-08-07T15:13:25.494Z,98464.98
2022-08-07T15:14:58.243Z,98467.06
2022-08-07T15:16:10.835Z,98461.62
2022-08-07T15:17:22.314Z,98465.74
2022-08-07T15:18:35.978Z,98462.76
2022-08-07T15:21:50.765Z,98466.45
2022-08-07T15:23:20.094Z,98469.36
2022-08-07T15:25:14.409Z,98470.27
2022-08-07T15:28:32.367Z,98474.42
2022-08-07T15:32:11.722Z,98478.69
2022-08-07T15:33:21.263Z,98477.91
2022-08-07T15:38:17.903Z,98475.73
2022-08-07T15:39:26.935Z,98472.70
2022-08-07T15:41:22.829Z,98472.34
2022-08-07T15:42:57.024Z,98471.98
2022-08-07T15:44:13.547Z,98468.67
2022-08-07T15:45:57.602Z,98468.02
2022-08-07T15:47:09.103Z,98465.67
2022-08-07T15:48:34.296Z,98465.52
2022-08-07T15:50:04.171Z,98461.93
2022-08-07T15:51:11.933Z,98465.30
2022-08-07T15:52:30.577Z,98466.84
2022-08-07T15:53:52.838Z,98463.44
2022-08-07T15:55:11.597Z,98464.29
2022-08-07T15:56:20.721Z,98464.33
2022-08-07T15:57:39.673Z,98462.83
2022-08-07T15:59:01.209Z,98466.24
2022-08-07T16:00:09.984Z,98467.88
2022-08-07T16:02:01.906Z,98466.66
2022-08-07T16:03:47.158Z,98461.79
2022-08-07T16:05:02.149Z,98455.52
2022-08-07T16:06:10.627Z,98455.98
2022-08-07T16:08:28.587Z,98454.08
2022-08-07T16:08:47.366Z,98451.55
2022-08-07T16:10:04.849Z,98457.80
2022-08-07T16:11:44.794Z,98459.17
2022-08-07T16:13:00.944Z,98462.48
2022-08-07T16:14:22.939Z,98457.01
2022-08-07T16:15:55.665Z,98452.02
2022-08-07T16:18:01.274Z,98449.02
2022-08-07T16:18:51.705Z,98445.79
2022-08-07T16:20:33.881Z,98445.86
2022-08-07T16:22:31.496Z,98441.86
2022-08-07T16:23:55.099Z,98436.38
2022-08-07T16:25:55.425Z,98433.06
2022-08-07T16:27:17.992Z,98435.39
2022-08-07T16:30:06.516Z,98434.77
2022-08-07T16:30:30.171Z,98434.35
2022-08-07T16:31:58.530Z,98430.42
2022-08-07T16:34:01.508Z,98430.79
2022-08-07T16:34:50.573Z,98426.26
2022-08-07T16:36:31.163Z,98423.04
2022-08-07T16:38:18.631Z,98422.89
2022-08-07T16:39:55.620Z,98420.65
2022-08-07T16:41:22.383Z,98420.22
2022-08-07T16:42:37.520Z,98419.23
2022-08-07T16:44:46.405Z,98418.27
2022-08-07T16:46:40.486Z,98418.89
2022-08-07T16:48:06.771Z,98416.20
2022-08-07T16:50:27.247Z,98414.67
2022-08-07T16:51:54.199Z,98410.46
2022-08-07T16:53:55.578Z,98413.39